createdAt,value
2016-10-06T00:00:54.062Z,0
2016-10-06T00:02:04.804Z,0
2016-10-06T00:03:15.530Z,0
2016-10-06T00:04:26.301Z,0
2016-10-06T00:05:37.011Z,0
2016-10-06T00:06:47.772Z,0
2016-10-06T00:07:58.504Z,0
2016-10-06T00:09:09.567Z,0
2016-10-06T00:10:20.350Z,0
2016-10-06T00:11:31.103Z,0
2016-10-06T00:12:41.831Z,0
2016-10-06T00:13:52.559Z,0
2016-10-06T00:15:03.315Z,0
2016-10-06T00:16:14.028Z,0
2016-10-06T00:17:24.741Z,0
2016-10-06T00:18:35.464Z,0
2016-10-06T00:19:46.203Z,0
2016-10-06T00:20:56.913Z,0
2016-10-06T00:22:07.665Z,0
2016-10-06T00:23:18.426Z,0
2016-10-06T00:24:29.134Z,0
2016-10-06T00:25:39.882Z,0
2016-10-06T00:26:50.624Z,0
2016-10-06T00:28:01.348Z,0
2016-10-06T00:29:12.076Z,0
2016-10-06T00:30:22.774Z,0
2016-10-06T00:31:33.496Z,0
2016-10-06T00:32:44.225Z,0
2016-10-06T00:33:54.966Z,0
2016-10-06T00:35:05.693Z,0
2016-10-06T00:36:16.437Z,0
2016-10-06T00:37:27.205Z,0
2016-10-06T00:38:37.923Z,0
2016-10-06T00:39:48.672Z,0
2016-10-06T00:40:59.405Z,0
2016-10-06T00:42:10.637Z,0
2016-10-06T00:43:21.368Z,0
2016-10-06T00:44:32.084Z,0
2016-10-06T00:45:42.826Z,0
2016-10-06T00:46:53.564Z,0
2016-10-06T00:48:04.287Z,0
2016-10-06T00:49:15.020Z,0
2016-10-06T00:50:25.754Z,0
2016-10-06T00:51:36.517Z,0
2016-10-06T00:52:47.256Z,0
2016-10-06T00:53:57.979Z,0
2016-10-06T00:55:08.930Z,0
2016-10-06T00:56:19.792Z,0
2016-10-06T00:57:31.079Z,0
2016-10-06T00:58:41.829Z,0
2016-10-06T00:59:52.563Z,0
2016-10-06T01:01:03.286Z,0
2016-10-06T01:02:13.988Z,0
2016-10-06T01:03:24.726Z,0
2016-10-06T01:04:35.973Z,0
2016-10-06T01:05:46.680Z,0
2016-10-06T01:06:58.419Z,0
2016-10-06T01:08:09.592Z,0
2016-10-06T01:09:20.274Z,0
2016-10-06T01:10:30.997Z,0
2016-10-06T01:11:41.721Z,0
2016-10-06T01:12:52.467Z,0
2016-10-06T01:14:03.209Z,0
2016-10-06T01:15:13.936Z,0
2016-10-06T01:16:25.174Z,0
2016-10-06T01:17:35.922Z,0
2016-10-06T01:18:46.672Z,0
2016-10-06T01:19:57.382Z,0
2016-10-06T01:21:08.087Z,0
2016-10-06T01:22:18.793Z,0
2016-10-06T01:23:29.514Z,0
2016-10-06T01:24:40.229Z,0
2016-10-06T01:25:50.979Z,0
2016-10-06T01:27:01.726Z,0
2016-10-06T01:28:12.448Z,0
2016-10-06T01:29:23.177Z,0
2016-10-06T01:30:33.899Z,0
2016-10-06T01:31:44.614Z,0
2016-10-06T01:32:55.361Z,0
2016-10-06T01:34:06.102Z,0
2016-10-06T01:35:16.848Z,0
2016-10-06T01:36:27.569Z,0
2016-10-06T01:37:38.806Z,0
2016-10-06T01:38:49.538Z,0
2016-10-06T01:40:00.278Z,0
2016-10-06T01:41:11.505Z,0
2016-10-06T01:42:22.239Z,0
2016-10-06T01:43:32.981Z,0
2016-10-06T01:44:43.730Z,0
2016-10-06T01:45:54.474Z,0
2016-10-06T01:47:05.212Z,0
2016-10-06T01:48:15.954Z,0
2016-10-06T01:49:26.693Z,0
2016-10-06T01:50:37.433Z,0
2016-10-06T01:51:48.181Z,0
2016-10-06T01:52:58.922Z,0
2016-10-06T01:54:09.651Z,0
2016-10-06T01:55:20.376Z,0
2016-10-06T01:56:31.104Z,0
2016-10-06T01:57:41.824Z,0
2016-10-06T01:58:52.555Z,0
2016-10-06T02:00:03.274Z,0
2016-10-06T02:01:14.029Z,0
2016-10-06T02:02:24.757Z,0
2016-10-06T02:03:35.487Z,0
2016-10-06T02:04:46.187Z,0
2016-10-06T02:05:56.925Z,0
2016-10-06T02:07:07.648Z,0
2016-10-06T02:08:18.370Z,0
2016-10-06T02:09:29.135Z,0
2016-10-06T02:10:39.876Z,0
2016-10-06T02:11:50.620Z,0
2016-10-06T02:13:01.373Z,0
2016-10-06T02:14:12.096Z,0
2016-10-06T02:15:22.818Z,0
2016-10-06T02:16:33.527Z,0
2016-10-06T02:17:44.245Z,0
2016-10-06T02:18:54.969Z,0
2016-10-06T02:20:05.695Z,0
2016-10-06T02:21:16.433Z,0
2016-10-06T02:22:27.182Z,0
2016-10-06T02:23:37.911Z,0
2016-10-06T02:24:48.657Z,0
2016-10-06T02:25:59.399Z,0
2016-10-06T02:27:10.105Z,0
2016-10-06T02:28:20.804Z,0
2016-10-06T02:29:31.511Z,0
2016-10-06T02:30:42.231Z,0
2016-10-06T02:31:52.956Z,0
2016-10-06T02:33:03.672Z,0
2016-10-06T02:34:14.422Z,0
2016-10-06T02:35:25.146Z,0
2016-10-06T02:36:35.896Z,0
2016-10-06T02:37:46.623Z,0
2016-10-06T02:38:57.379Z,0
2016-10-06T02:40:08.106Z,0
2016-10-06T02:41:18.845Z,0
2016-10-06T02:42:29.538Z,0
2016-10-06T02:43:40.258Z,0
2016-10-06T02:44:51.010Z,0
2016-10-06T02:46:01.752Z,0
2016-10-06T02:47:12.477Z,0
2016-10-06T02:48:23.191Z,0
2016-10-06T02:49:33.947Z,0
2016-10-06T02:50:44.691Z,0
2016-10-06T02:51:55.416Z,0
2016-10-06T02:53:06.132Z,0
2016-10-06T02:54:16.892Z,0
2016-10-06T02:55:27.628Z,0
2016-10-06T02:56:38.330Z,0
2016-10-06T02:57:49.071Z,0
2016-10-06T02:58:59.783Z,0
2016-10-06T03:00:10.516Z,0
2016-10-06T03:01:21.252Z,0
2016-10-06T03:02:32.545Z,0
2016-10-06T03:03:43.266Z,0
2016-10-06T03:04:54.005Z,0
2016-10-06T03:06:04.726Z,0
2016-10-06T03:07:15.466Z,0
2016-10-06T03:08:26.213Z,0
2016-10-06T03:09:36.934Z,0
2016-10-06T03:10:47.678Z,0
2016-10-06T03:11:58.921Z,0
2016-10-06T03:13:09.653Z,0
2016-10-06T03:14:20.383Z,0
2016-10-06T03:15:31.087Z,0
2016-10-06T03:16:41.850Z,0
2016-10-06T03:17:52.563Z,0
2016-10-06T03:19:03.295Z,0
2016-10-06T03:20:14.047Z,0
2016-10-06T03:21:24.790Z,0
2016-10-06T03:22:35.497Z,0
2016-10-06T03:23:46.231Z,0
2016-10-06T03:24:56.945Z,0
2016-10-06T03:26:07.663Z,0
2016-10-06T03:27:18.390Z,0
2016-10-06T03:28:29.146Z,0
2016-10-06T03:29:39.872Z,0
2016-10-06T03:30:50.583Z,0
2016-10-06T03:32:01.309Z,0
2016-10-06T03:33:12.829Z,0
2016-10-06T03:34:23.571Z,0
2016-10-06T03:35:34.811Z,0
2016-10-06T03:36:45.540Z,0
2016-10-06T03:37:56.292Z,0
2016-10-06T03:39:07.034Z,0
2016-10-06T03:40:17.750Z,0
2016-10-06T03:41:28.479Z,0
2016-10-06T03:42:39.218Z,0
2016-10-06T03:43:49.983Z,0
2016-10-06T03:45:00.706Z,0
2016-10-06T03:46:11.442Z,0
2016-10-06T03:47:22.154Z,0
2016-10-06T03:48:32.885Z,0
2016-10-06T03:49:43.645Z,0
2016-10-06T03:50:54.400Z,0
2016-10-06T03:52:05.118Z,0
2016-10-06T03:53:16.376Z,0
2016-10-06T03:54:27.102Z,0
2016-10-06T03:55:37.831Z,0
2016-10-06T03:56:49.143Z,0
2016-10-06T03:57:59.854Z,0
2016-10-06T03:59:11.098Z,0
2016-10-06T04:00:22.339Z,0
2016-10-06T04:01:33.076Z,0
2016-10-06T04:02:44.346Z,0
2016-10-06T04:03:55.066Z,0
2016-10-06T04:05:05.929Z,0
2016-10-06T04:06:16.653Z,0
2016-10-06T04:07:27.926Z,0
2016-10-06T04:08:38.651Z,0
2016-10-06T04:09:49.396Z,0
2016-10-06T04:11:00.121Z,0
2016-10-06T04:12:10.860Z,0
2016-10-06T04:13:21.604Z,0
2016-10-06T04:14:32.353Z,0
2016-10-06T04:15:43.090Z,0
2016-10-06T04:16:53.816Z,0
2016-10-06T04:18:04.552Z,0
2016-10-06T04:19:15.396Z,0
2016-10-06T04:20:26.132Z,0
2016-10-06T04:21:36.861Z,0
2016-10-06T04:22:47.613Z,0
2016-10-06T04:23:58.329Z,0
2016-10-06T04:25:09.074Z,0
2016-10-06T04:26:19.825Z,0
2016-10-06T04:27:30.548Z,0
2016-10-06T04:28:41.283Z,0
2016-10-06T04:29:52.016Z,0
2016-10-06T04:31:02.765Z,0
2016-10-06T04:32:13.496Z,0
2016-10-06T04:33:24.228Z,0
2016-10-06T04:34:34.939Z,0
2016-10-06T04:35:45.694Z,0
2016-10-06T04:36:56.951Z,0
2016-10-06T04:38:07.679Z,0
2016-10-06T04:39:18.410Z,0
2016-10-06T04:40:29.650Z,0
2016-10-06T04:41:40.376Z,0
2016-10-06T04:42:51.108Z,0
2016-10-06T04:44:01.849Z,0
2016-10-06T04:45:12.582Z,0
2016-10-06T04:46:23.326Z,0
2016-10-06T04:47:34.047Z,0
2016-10-06T04:48:45.348Z,0
2016-10-06T04:49:56.069Z,0
2016-10-06T04:51:06.798Z,0
2016-10-06T04:52:17.523Z,0
2016-10-06T04:53:28.240Z,0
2016-10-06T04:54:38.997Z,0
2016-10-06T04:55:49.711Z,0
2016-10-06T04:57:00.435Z,0
2016-10-06T04:58:11.156Z,0
2016-10-06T04:59:21.866Z,0
2016-10-06T05:00:32.601Z,0
2016-10-06T05:01:43.321Z,0
2016-10-06T05:02:54.044Z,0
2016-10-06T05:04:04.768Z,0
2016-10-06T05:05:15.490Z,0
2016-10-06T05:06:26.221Z,0
2016-10-06T05:07:36.928Z,0
2016-10-06T05:08:47.662Z,0
2016-10-06T05:09:58.381Z,0
2016-10-06T05:11:10.099Z,0
2016-10-06T05:12:20.812Z,0
2016-10-06T05:13:31.546Z,0
2016-10-06T05:14:42.296Z,0
2016-10-06T05:15:53.038Z,0
2016-10-06T05:17:03.764Z,0
2016-10-06T05:18:14.513Z,0
2016-10-06T05:19:25.230Z,0
2016-10-06T05:20:36.072Z,0
2016-10-06T05:21:46.792Z,0
2016-10-06T05:22:57.519Z,0
2016-10-06T05:24:08.252Z,0
2016-10-06T05:25:18.972Z,0
2016-10-06T05:26:29.701Z,0
2016-10-06T05:27:40.432Z,0
2016-10-06T05:28:51.168Z,0
2016-10-06T05:30:01.905Z,0
2016-10-06T05:31:12.625Z,0
2016-10-06T05:32:23.360Z,0
2016-10-06T05:33:34.088Z,0
2016-10-06T05:34:45.334Z,0
2016-10-06T05:35:56.053Z,0
2016-10-06T05:37:06.814Z,0
2016-10-06T05:38:17.516Z,0
2016-10-06T05:39:28.261Z,0
2016-10-06T05:40:38.980Z,0
2016-10-06T05:41:49.699Z,0
2016-10-06T05:43:00.438Z,0
2016-10-06T05:44:11.175Z,0
2016-10-06T05:45:21.925Z,0
2016-10-06T05:46:32.658Z,0
2016-10-06T05:47:43.391Z,0
2016-10-06T05:48:54.127Z,0
2016-10-06T05:50:04.875Z,0
2016-10-06T05:51:15.612Z,0
2016-10-06T05:52:26.348Z,0
2016-10-06T05:53:37.081Z,0
2016-10-06T05:54:47.791Z,0
2016-10-06T05:55:58.557Z,0
2016-10-06T05:57:09.275Z,0
2016-10-06T05:58:20.505Z,0
2016-10-06T05:59:31.259Z,0
2016-10-06T06:00:41.999Z,0
2016-10-06T06:01:52.739Z,0
2016-10-06T06:03:03.482Z,0
2016-10-06T06:04:14.206Z,0
2016-10-06T06:05:24.940Z,0
2016-10-06T06:06:35.680Z,0
2016-10-06T06:07:46.422Z,0
2016-10-06T06:08:57.148Z,0
2016-10-06T06:10:07.889Z,0
2016-10-06T06:11:18.651Z,0
2016-10-06T06:12:29.373Z,0
2016-10-06T06:13:40.092Z,0
2016-10-06T06:14:50.808Z,0
2016-10-06T06:16:01.548Z,0
2016-10-06T06:17:12.275Z,0
2016-10-06T06:18:22.997Z,0
2016-10-06T06:19:33.716Z,0
2016-10-06T06:20:44.464Z,0
2016-10-06T06:21:55.213Z,0
2016-10-06T06:23:05.945Z,0
2016-10-06T06:24:16.703Z,0
2016-10-06T06:25:27.425Z,0
2016-10-06T06:26:38.152Z,0
2016-10-06T06:27:48.902Z,0
2016-10-06T06:28:59.637Z,0
2016-10-06T06:30:10.380Z,0
2016-10-06T06:31:21.092Z,0
2016-10-06T06:32:31.816Z,0
2016-10-06T06:33:42.528Z,0
2016-10-06T06:34:53.257Z,0
2016-10-06T06:36:03.969Z,0
2016-10-06T06:37:14.735Z,0
2016-10-06T06:38:25.457Z,0
2016-10-06T06:39:36.189Z,0
2016-10-06T06:40:47.433Z,0
2016-10-06T06:41:58.174Z,0
2016-10-06T06:43:08.899Z,0
2016-10-06T06:44:19.617Z,0
2016-10-06T06:45:30.367Z,0
2016-10-06T06:46:41.106Z,0
2016-10-06T06:47:51.840Z,0
2016-10-06T06:49:02.549Z,0
2016-10-06T06:50:13.267Z,0
2016-10-06T06:51:23.994Z,0
2016-10-06T06:52:34.717Z,0
2016-10-06T06:53:45.444Z,0
2016-10-06T06:54:56.175Z,0
2016-10-06T06:56:06.897Z,0
2016-10-06T06:57:17.634Z,0
2016-10-06T06:58:28.377Z,0
2016-10-06T06:59:39.120Z,0
2016-10-06T07:00:50.397Z,0
2016-10-06T07:02:01.117Z,0
2016-10-06T07:03:11.871Z,0
2016-10-06T07:04:22.613Z,0
2016-10-06T07:05:33.331Z,0
2016-10-06T07:06:44.088Z,0
2016-10-06T07:07:54.805Z,0
2016-10-06T07:09:05.564Z,0
2016-10-06T07:10:16.300Z,0
2016-10-06T07:11:27.026Z,0
2016-10-06T07:12:37.754Z,0
2016-10-06T07:13:48.491Z,0
2016-10-06T07:14:59.238Z,0
2016-10-06T07:16:09.960Z,0
2016-10-06T07:17:20.699Z,0
2016-10-06T07:18:31.431Z,0
2016-10-06T07:19:42.788Z,0
2016-10-06T07:20:53.509Z,0
2016-10-06T07:22:04.746Z,0
2016-10-06T07:23:15.457Z,0
2016-10-06T07:24:26.202Z,0
2016-10-06T07:25:36.941Z,0
2016-10-06T07:26:47.709Z,0
2016-10-06T07:27:58.447Z,0
2016-10-06T07:29:09.166Z,0
2016-10-06T07:30:19.918Z,0
2016-10-06T07:31:30.632Z,0
2016-10-06T07:32:41.363Z,0
2016-10-06T07:33:52.104Z,0
2016-10-06T07:35:02.856Z,0
2016-10-06T07:36:13.589Z,0
2016-10-06T07:37:24.299Z,0
2016-10-06T07:38:35.007Z,0
2016-10-06T07:39:45.727Z,0
2016-10-06T07:40:56.451Z,0
2016-10-06T07:42:07.187Z,0
2016-10-06T07:43:18.135Z,0
2016-10-06T07:44:28.883Z,0
2016-10-06T07:45:39.632Z,0
2016-10-06T07:46:50.390Z,0
2016-10-06T07:48:01.129Z,0
2016-10-06T07:49:11.880Z,0
2016-10-06T07:50:22.616Z,0
2016-10-06T07:51:33.355Z,0
2016-10-06T07:52:44.090Z,0
2016-10-06T07:53:55.346Z,0
2016-10-06T07:55:06.067Z,0
2016-10-06T07:56:16.790Z,0
2016-10-06T07:57:27.540Z,0
2016-10-06T07:58:38.280Z,0
2016-10-06T07:59:49.004Z,0
2016-10-06T08:00:59.742Z,0
2016-10-06T08:02:10.495Z,0
2016-10-06T08:03:21.216Z,0
2016-10-06T08:04:31.939Z,0
2016-10-06T08:05:42.662Z,0
2016-10-06T08:06:54.403Z,0
2016-10-06T08:08:05.145Z,0
2016-10-06T08:09:15.872Z,0
2016-10-06T08:10:26.610Z,0
2016-10-06T08:11:37.344Z,0
2016-10-06T08:12:48.096Z,0
2016-10-06T08:13:58.846Z,0
2016-10-06T08:15:10.099Z,0
2016-10-06T08:16:20.854Z,0
2016-10-06T08:17:31.582Z,0
2016-10-06T08:18:42.328Z,0
2016-10-06T08:19:53.061Z,0
2016-10-06T08:21:03.787Z,0
2016-10-06T08:22:14.515Z,4
2016-10-06T08:23:25.247Z,4
2016-10-06T08:24:35.994Z,4
2016-10-06T08:25:46.718Z,8
2016-10-06T08:26:57.444Z,12
2016-10-06T08:28:08.181Z,16
2016-10-06T08:29:18.909Z,20
2016-10-06T08:30:29.643Z,28
2016-10-06T08:31:40.396Z,36
2016-10-06T08:32:51.132Z,48
2016-10-06T08:34:01.847Z,68
2016-10-06T08:35:13.077Z,84
2016-10-06T08:36:23.805Z,100
2016-10-06T08:37:34.529Z,120
2016-10-06T08:38:45.806Z,136
2016-10-06T08:39:56.545Z,156
2016-10-06T08:41:07.270Z,176
2016-10-06T08:42:17.997Z,196
2016-10-06T08:43:28.759Z,220
2016-10-06T08:44:39.532Z,264
2016-10-06T08:45:50.257Z,324
2016-10-06T08:47:00.975Z,392
2016-10-06T08:48:11.739Z,460
2016-10-06T08:49:22.468Z,536
2016-10-06T08:50:33.195Z,660
2016-10-06T08:51:43.916Z,772
2016-10-06T08:52:54.646Z,832
2016-10-06T08:54:05.375Z,924
2016-10-06T08:55:16.097Z,1108
2016-10-06T08:56:26.835Z,1304
2016-10-06T08:57:37.566Z,1472
2016-10-06T08:58:48.285Z,1628
2016-10-06T08:59:59.040Z,1788
2016-10-06T09:01:09.785Z,2152
2016-10-06T09:02:20.522Z,2440
2016-10-06T09:03:31.251Z,2808
2016-10-06T09:04:42.014Z,2968
2016-10-06T09:05:52.732Z,2828
2016-10-06T09:07:03.463Z,2608
2016-10-06T09:08:14.215Z,2620
2016-10-06T09:09:24.924Z,2748
2016-10-06T09:10:35.642Z,3124
2016-10-06T09:11:46.900Z,3704
2016-10-06T09:12:57.628Z,4684
2016-10-06T09:14:08.366Z,5352
2016-10-06T09:15:19.093Z,4356
2016-10-06T09:16:29.851Z,3164
2016-10-06T09:17:40.563Z,2736
2016-10-06T09:18:51.320Z,2636
2016-10-06T09:20:02.037Z,2728
2016-10-06T09:21:12.773Z,2944
2016-10-06T09:22:23.518Z,3420
2016-10-06T09:23:34.228Z,4028
2016-10-06T09:24:44.973Z,4052
2016-10-06T09:25:55.701Z,4448
2016-10-06T09:27:06.460Z,5316
2016-10-06T09:28:17.530Z,6476
2016-10-06T09:29:28.256Z,5628
2016-10-06T09:30:38.969Z,5860
2016-10-06T09:31:49.689Z,5940
2016-10-06T09:33:00.403Z,5912
2016-10-06T09:34:11.141Z,5668
2016-10-06T09:35:21.886Z,5824
2016-10-06T09:36:32.604Z,6136
2016-10-06T09:37:43.365Z,6636
2016-10-06T09:38:54.085Z,7208
2016-10-06T09:40:04.814Z,7848
2016-10-06T09:41:15.555Z,8272
2016-10-06T09:42:26.290Z,7996
2016-10-06T09:43:37.049Z,7540
2016-10-06T09:44:47.768Z,7308
2016-10-06T09:45:58.489Z,7284
2016-10-06T09:47:09.209Z,7604
2016-10-06T09:48:19.946Z,8072
2016-10-06T09:49:30.676Z,7084
2016-10-06T09:50:41.412Z,8332
2016-10-06T09:51:52.140Z,10060
2016-10-06T09:53:02.884Z,11792
2016-10-06T09:54:13.635Z,13360
2016-10-06T09:55:24.369Z,13656
2016-10-06T09:56:35.108Z,13372
2016-10-06T09:57:45.858Z,13424
2016-10-06T09:58:56.588Z,12908
2016-10-06T10:00:07.347Z,11260
2016-10-06T10:01:18.085Z,9884
2016-10-06T10:02:29.346Z,10316
2016-10-06T10:03:40.059Z,11792
2016-10-06T10:04:50.809Z,14092
2016-10-06T10:06:01.547Z,15544
2016-10-06T10:07:12.783Z,15576
2016-10-06T10:08:23.529Z,21344
2016-10-06T10:09:34.252Z,13468
2016-10-06T10:10:45.003Z,12004
2016-10-06T10:11:55.726Z,12084
2016-10-06T10:13:06.481Z,12736
2016-10-06T10:14:17.202Z,13360
2016-10-06T10:15:28.455Z,14120
2016-10-06T10:16:39.198Z,16108
2016-10-06T10:17:49.961Z,19872
2016-10-06T10:19:00.686Z,24224
2016-10-06T10:20:11.465Z,30304
2016-10-06T10:21:22.195Z,33216
2016-10-06T10:22:33.011Z,51008
2016-10-06T10:23:43.734Z,38016
2016-10-06T10:24:54.472Z,32032
2016-10-06T10:26:05.200Z,21248
2016-10-06T10:27:15.923Z,19232
2016-10-06T10:28:26.637Z,15684
2016-10-06T10:29:37.380Z,13456
2016-10-06T10:30:48.141Z,13436
2016-10-06T10:31:58.892Z,18152
2016-10-06T10:33:09.653Z,26240
2016-10-06T10:34:20.432Z,46304
2016-10-06T10:35:31.165Z,56640
2016-10-06T10:36:41.900Z,58432
2016-10-06T10:37:52.646Z,60896
2016-10-06T10:39:03.397Z,60992
2016-10-06T10:40:14.125Z,57024
2016-10-06T10:41:24.859Z,56096
2016-10-06T10:42:35.588Z,55584
2016-10-06T10:43:46.335Z,49888
2016-10-06T10:44:57.071Z,61760
2016-10-06T10:46:07.844Z,64544
2016-10-06T10:47:18.656Z,60832
2016-10-06T10:48:29.440Z,64704
2016-10-06T10:49:40.192Z,64960
2016-10-06T10:50:50.934Z,66592
2016-10-06T10:52:01.743Z,66272
2016-10-06T10:53:12.482Z,67744
2016-10-06T10:54:23.231Z,27424
2016-10-06T10:55:34.001Z,28576
2016-10-06T10:56:44.749Z,33184
2016-10-06T10:57:55.999Z,34464
2016-10-06T10:59:07.264Z,36832
2016-10-06T11:00:18.008Z,37120
2016-10-06T11:01:28.762Z,33920
2016-10-06T11:02:39.746Z,73984
2016-10-06T11:03:50.601Z,40576
2016-10-06T11:05:01.340Z,28928
2016-10-06T11:06:12.076Z,56960
2016-10-06T11:07:22.805Z,59104
2016-10-06T11:08:34.056Z,74880
2016-10-06T11:09:44.787Z,38752
2016-10-06T11:10:55.515Z,72352
2016-10-06T11:12:06.330Z,57184
2016-10-06T11:13:17.617Z,86496
2016-10-06T11:14:28.364Z,87232
2016-10-06T11:15:39.627Z,82080
2016-10-06T11:16:50.379Z,75008
2016-10-06T11:18:01.121Z,75872
2016-10-06T11:19:11.905Z,79328
2016-10-06T11:20:22.627Z,72832
2016-10-06T11:21:33.373Z,76896
2016-10-06T11:22:44.106Z,81696
2016-10-06T11:23:54.830Z,74688
2016-10-06T11:25:05.577Z,73888
2016-10-06T11:26:16.315Z,65792
2016-10-06T11:27:27.047Z,64736
2016-10-06T11:28:37.795Z,71488
2016-10-06T11:29:48.532Z,65312
2016-10-06T11:30:59.794Z,54368
2016-10-06T11:32:10.533Z,47712
2016-10-06T11:33:21.279Z,50464
2016-10-06T11:34:32.026Z,54784
2016-10-06T11:35:42.764Z,58304
2016-10-06T11:36:53.848Z,59872
2016-10-06T11:38:04.733Z,64896
2016-10-06T11:39:15.468Z,69536
2016-10-06T11:40:26.205Z,69184
2016-10-06T11:41:36.947Z,72384
2016-10-06T11:42:47.677Z,73952
2016-10-06T11:43:58.420Z,72640
2016-10-06T11:45:09.150Z,79200
2016-10-06T11:46:19.893Z,81024
2016-10-06T11:47:30.616Z,85952
2016-10-06T11:48:41.360Z,84640
2016-10-06T11:49:52.137Z,89376
2016-10-06T11:51:02.872Z,90656
2016-10-06T11:52:13.599Z,90400
2016-10-06T11:53:24.347Z,95904
2016-10-06T11:54:35.118Z,105280
2016-10-06T11:55:45.851Z,113280
2016-10-06T11:56:56.597Z,108128
2016-10-06T11:58:07.332Z,99264
2016-10-06T11:59:18.081Z,103648
2016-10-06T12:00:28.822Z,109920
2016-10-06T12:01:39.570Z,90304
2016-10-06T12:02:50.340Z,86528
2016-10-06T12:04:01.599Z,82272
2016-10-06T12:05:12.861Z,88928
2016-10-06T12:06:23.806Z,86528
2016-10-06T12:07:34.554Z,90848
2016-10-06T12:08:45.296Z,96096
2016-10-06T12:09:56.564Z,86144
2016-10-06T12:11:07.388Z,95232
2016-10-06T12:12:18.141Z,94944
2016-10-06T12:13:28.890Z,95168
2016-10-06T12:14:39.624Z,93728
2016-10-06T12:15:50.375Z,94528
2016-10-06T12:17:01.097Z,96320
2016-10-06T12:18:11.889Z,95680
2016-10-06T12:19:22.651Z,96960
2016-10-06T12:20:33.398Z,99104
2016-10-06T12:21:44.134Z,93504
2016-10-06T12:22:55.438Z,97056
2016-10-06T12:24:06.167Z,98560
2016-10-06T12:25:17.451Z,96736
2016-10-06T12:26:29.757Z,92352
2016-10-06T12:27:40.501Z,100416
2016-10-06T12:28:51.287Z,97920
2016-10-06T12:30:02.016Z,100128
2016-10-06T12:31:12.782Z,95904
2016-10-06T12:32:23.548Z,99808
2016-10-06T12:33:34.299Z,101216
2016-10-06T12:34:45.052Z,102432
2016-10-06T12:35:55.808Z,99008
2016-10-06T12:37:06.542Z,91680
2016-10-06T12:38:17.270Z,99776
2016-10-06T12:39:28.009Z,102976
2016-10-06T12:40:38.744Z,98912
2016-10-06T12:41:49.486Z,102784
2016-10-06T12:43:00.214Z,98912
2016-10-06T12:44:10.964Z,102464
2016-10-06T12:45:21.703Z,101664
2016-10-06T12:46:32.446Z,103808
2016-10-06T12:47:43.200Z,103712
2016-10-06T12:48:53.936Z,101472
2016-10-06T12:50:04.682Z,105920
2016-10-06T12:51:15.430Z,105984
2016-10-06T12:52:26.209Z,108896
2016-10-06T12:53:37.480Z,111616
2016-10-06T12:54:48.220Z,96800
2016-10-06T12:55:58.971Z,78688
2016-10-06T12:57:09.725Z,34336
2016-10-06T12:58:20.469Z,99328
2016-10-06T12:59:31.227Z,100608
2016-10-06T13:00:42.511Z,96384
2016-10-06T13:01:53.257Z,93632
2016-10-06T13:03:04.003Z,95968
2016-10-06T13:04:14.753Z,96480
2016-10-06T13:05:25.499Z,99104
2016-10-06T13:06:36.227Z,97632
2016-10-06T13:07:46.982Z,97728
2016-10-06T13:08:57.740Z,23648
2016-10-06T13:10:08.479Z,92672
2016-10-06T13:11:19.228Z,103296
2016-10-06T13:12:29.977Z,110272
2016-10-06T13:13:40.737Z,116256
2016-10-06T13:14:51.464Z,115072
2016-10-06T13:16:02.747Z,114944
2016-10-06T13:17:13.506Z,114464
2016-10-06T13:18:24.246Z,121312
2016-10-06T13:19:35.010Z,120032
2016-10-06T13:20:46.266Z,126784
2016-10-06T13:21:57.019Z,35008
2016-10-06T13:23:07.767Z,37728
2016-10-06T13:24:18.529Z,40096
2016-10-06T13:25:29.265Z,38624
2016-10-06T13:26:40.035Z,36032
2016-10-06T13:27:50.807Z,30560
2016-10-06T13:29:01.552Z,29088
2016-10-06T13:30:12.832Z,27680
2016-10-06T13:31:23.596Z,32864
2016-10-06T13:32:34.322Z,138848
2016-10-06T13:33:45.078Z,132128
2016-10-06T13:34:56.430Z,125376
2016-10-06T13:36:07.182Z,124864
2016-10-06T13:37:17.981Z,35264
2016-10-06T13:38:29.060Z,37728
2016-10-06T13:39:39.980Z,103776
2016-10-06T13:40:50.742Z,76864
2016-10-06T13:42:01.530Z,144224
2016-10-06T13:43:12.297Z,140320
2016-10-06T13:44:23.074Z,49792
2016-10-06T13:45:33.832Z,46752
2016-10-06T13:46:44.600Z,50816
2016-10-06T13:47:55.352Z,71264
2016-10-06T13:49:06.103Z,96832
2016-10-06T13:50:17.385Z,42624
2016-10-06T13:51:28.151Z,130528
2016-10-06T13:52:38.922Z,147232
2016-10-06T13:53:49.685Z,134048
2016-10-06T13:55:00.676Z,148256
2016-10-06T13:56:11.545Z,76992
2016-10-06T13:57:22.283Z,148672
2016-10-06T13:58:33.031Z,137472
2016-10-06T13:59:43.771Z,153504
2016-10-06T14:00:55.053Z,47232
2016-10-06T14:02:05.820Z,40000
2016-10-06T14:03:16.593Z,97632
2016-10-06T14:04:27.341Z,143776
2016-10-06T14:05:38.095Z,135040
2016-10-06T14:06:48.848Z,131168
2016-10-06T14:07:59.603Z,131168
2016-10-06T14:09:10.383Z,56480
2016-10-06T14:10:21.149Z,141984
2016-10-06T14:11:31.898Z,40032
2016-10-06T14:12:42.643Z,36576
2016-10-06T14:13:53.425Z,134112
2016-10-06T14:15:04.693Z,46208
2016-10-06T14:16:15.445Z,37856
2016-10-06T14:17:26.709Z,39968
2016-10-06T14:18:37.436Z,51360
2016-10-06T14:19:48.693Z,47776
2016-10-06T14:20:59.955Z,42016
2016-10-06T14:22:11.199Z,53600
2016-10-06T14:23:21.930Z,74976
2016-10-06T14:24:32.671Z,53664
2016-10-06T14:25:43.410Z,154368
2016-10-06T14:26:54.171Z,113184
2016-10-06T14:28:05.019Z,49120
2016-10-06T14:29:16.321Z,41088
2016-10-06T14:30:27.261Z,38816
2016-10-06T14:31:38.010Z,37664
2016-10-06T14:32:48.766Z,33408
2016-10-06T14:33:59.514Z,40032
2016-10-06T14:35:10.249Z,50336
2016-10-06T14:36:20.989Z,60544
2016-10-06T14:37:31.713Z,59616
2016-10-06T14:38:42.973Z,49920
2016-10-06T14:39:53.742Z,46944
2016-10-06T14:41:04.483Z,40576
2016-10-06T14:42:15.259Z,38656
2016-10-06T14:43:25.991Z,38688
2016-10-06T14:44:36.736Z,41568
2016-10-06T14:45:47.492Z,147904
2016-10-06T14:46:59.300Z,36864
2016-10-06T14:48:10.046Z,43776
2016-10-06T14:49:20.832Z,42944
2016-10-06T14:50:31.569Z,39072
2016-10-06T14:51:42.332Z,147392
2016-10-06T14:52:53.073Z,116096
2016-10-06T14:54:03.810Z,56992
2016-10-06T14:55:14.540Z,47040
2016-10-06T14:56:25.348Z,143488
2016-10-06T14:57:36.083Z,146432
2016-10-06T14:58:46.842Z,66464
2016-10-06T14:59:57.584Z,144576
2016-10-06T15:01:08.890Z,137600
2016-10-06T15:02:19.629Z,141056
2016-10-06T15:03:30.372Z,29696
2016-10-06T15:04:41.146Z,113312
2016-10-06T15:05:51.904Z,35392
2016-10-06T15:07:02.707Z,30208
2016-10-06T15:08:13.441Z,30720
2016-10-06T15:09:24.204Z,34144
2016-10-06T15:10:34.928Z,58784
2016-10-06T15:11:45.690Z,114144
2016-10-06T15:12:56.426Z,50848
2016-10-06T15:14:07.720Z,40192
2016-10-06T15:15:18.481Z,33536
2016-10-06T15:16:29.220Z,45024
2016-10-06T15:17:39.964Z,144256
2016-10-06T15:18:50.708Z,144896
2016-10-06T15:20:01.452Z,45888
2016-10-06T15:21:12.210Z,141312
2016-10-06T15:22:22.949Z,139360
2016-10-06T15:23:33.707Z,136192
2016-10-06T15:24:44.440Z,131328
2016-10-06T15:25:55.216Z,134336
2016-10-06T15:27:06.469Z,130976
2016-10-06T15:28:17.225Z,128480
2016-10-06T15:29:27.958Z,129664
2016-10-06T15:30:38.716Z,128288
2016-10-06T15:31:49.484Z,45152
2016-10-06T15:33:00.244Z,52800
2016-10-06T15:34:11.514Z,35872
2016-10-06T15:35:22.767Z,88256
2016-10-06T15:36:33.512Z,136064
2016-10-06T15:37:44.793Z,76064
2016-10-06T15:39:54.021Z,110016
2016-10-06T15:41:04.798Z,139744
2016-10-06T15:42:15.569Z,141024
2016-10-06T15:43:26.311Z,135584
2016-10-06T15:44:37.043Z,136640
2016-10-06T15:45:47.846Z,41056
2016-10-06T15:46:58.580Z,121088
2016-10-06T15:48:09.339Z,132256
2016-10-06T15:49:17.936Z,128704
2016-10-06T15:50:28.672Z,124512
2016-10-06T15:51:39.411Z,120064
2016-10-06T15:52:50.108Z,121888
2016-10-06T15:54:00.866Z,120768
2016-10-06T15:55:11.589Z,118880
2016-10-06T15:56:22.335Z,125504
2016-10-06T15:57:33.071Z,123840
2016-10-06T15:58:43.802Z,124736
2016-10-06T15:59:54.528Z,124768
2016-10-06T16:01:05.294Z,118368
2016-10-06T16:02:16.608Z,115616
2016-10-06T16:03:27.351Z,48384
2016-10-06T16:04:38.130Z,42496
2016-10-06T16:05:49.362Z,112320
2016-10-06T16:07:00.085Z,97536
2016-10-06T16:08:10.836Z,130976
2016-10-06T16:09:21.536Z,40704
2016-10-06T16:10:32.266Z,119680
2016-10-06T16:11:42.991Z,52832
2016-10-06T16:12:53.757Z,116416
2016-10-06T16:14:04.473Z,34432
2016-10-06T16:15:15.182Z,120384
2016-10-06T16:16:25.910Z,126784
2016-10-06T16:17:37.139Z,128032
2016-10-06T16:18:47.850Z,130336